sensor_id;sensor_type;location;lat;lon;timestamp;P1;durP1;ratioP1;P2;durP2;ratioP2
2462;SDS011;1243;54.298;10.172;2023-01-20T00:01:08;3.13;;;2.90;;
2462;SDS011;1243;54.298;10.172;2023-01-20T00:03:35;2.70;;;2.50;;
2462;SDS011;1243;54.298;10.172;2023-01-20T00:06:04;4.00;;;3.00;;
2462;SDS011;1243;54.298;10.172;2023-01-20T00:08:31;2.77;;;2.57;;
2462;SDS011;1243;54.298;10.172;2023-01-20T00:10:56;3.63;;;2.87;;
2462;SDS011;1243;54.298;10.172;2023-01-20T00:13:22;2.90;;;2.80;;
2462;SDS011;1243;54.298;10.172;2023-01-20T00:15:48;2.93;;;2.73;;
2462;SDS011;1243;54.298;10.172;2023-01-20T00:18:13;3.40;;;3.20;;
2462;SDS011;1243;54.298;10.172;2023-01-20T00:20:39;3.13;;;2.80;;
2462;SDS011;1243;54.298;10.172;2023-01-20T00:23:05;3.80;;;3.50;;
2462;SDS011;1243;54.298;10.172;2023-01-20T00:25:33;3.60;;;3.40;;
2462;SDS011;1243;54.298;10.172;2023-01-20T00:27:59;4.10;;;3.73;;
2462;SDS011;1243;54.298;10.172;2023-01-20T00:30:25;7.27;;;3.17;;
2462;SDS011;1243;54.298;10.172;2023-01-20T00:32:51;3.30;;;3.10;;
2462;SDS011;1243;54.298;10.172;2023-01-20T00:35:16;3.17;;;2.97;;
2462;SDS011;1243;54.298;10.172;2023-01-20T00:37:42;2.93;;;2.60;;
2462;SDS011;1243;54.298;10.172;2023-01-20T00:40:08;2.17;;;2.07;;
2462;SDS011;1243;54.298;10.172;2023-01-20T00:42:34;2.27;;;2.17;;
2462;SDS011;1243;54.298;10.172;2023-01-20T00:45:00;2.00;;;1.90;;
2462;SDS011;1243;54.298;10.172;2023-01-20T00:47:26;2.40;;;2.30;;
2462;SDS011;1243;54.298;10.172;2023-01-20T00:49:51;1.97;;;1.87;;
2462;SDS011;1243;54.298;10.172;2023-01-20T00:52:17;2.10;;;1.97;;
2462;SDS011;1243;54.298;10.172;2023-01-20T00:54:43;4.47;;;2.27;;
2462;SDS011;1243;54.298;10.172;2023-01-20T00:57:09;1.80;;;1.70;;
2462;SDS011;1243;54.298;10.172;2023-01-20T00:59:35;3.70;;;2.00;;
2462;SDS011;1243;54.298;10.172;2023-01-20T01:02:01;2.00;;;1.90;;
2462;SDS011;1243;54.298;10.172;2023-01-20T01:04:27;1.60;;;1.50;;
2462;SDS011;1243;54.298;10.172;2023-01-20T01:06:53;2.00;;;1.90;;
2462;SDS011;1243;54.298;10.172;2023-01-20T01:09:19;3.93;;;1.70;;
2462;SDS011;1243;54.298;10.172;2023-01-20T01:11:46;5.70;;;1.47;;
2462;SDS011;1243;54.298;10.172;2023-01-20T01:14:14;2.80;;;1.87;;
2462;SDS011;1243;54.298;10.172;2023-01-20T01:16:40;1.90;;;1.80;;
2462;SDS011;1243;54.298;10.172;2023-01-20T01:19:06;1.60;;;1.50;;
2462;SDS011;1243;54.298;10.172;2023-01-20T01:21:32;1.70;;;1.60;;
2462;SDS011;1243;54.298;10.172;2023-01-20T01:23:58;1.77;;;1.60;;
2462;SDS011;1243;54.298;10.172;2023-01-20T01:26:23;1.93;;;1.73;;
2462;SDS011;1243;54.298;10.172;2023-01-20T01:28:49;1.70;;;1.60;;
2462;SDS011;1243;54.298;10.172;2023-01-20T01:31:15;5.27;;;1.60;;
2462;SDS011;1243;54.298;10.172;2023-01-20T01:33:43;1.70;;;1.60;;
2462;SDS011;1243;54.298;10.172;2023-01-20T01:36:11;1.50;;;1.40;;
2462;SDS011;1243;54.298;10.172;2023-01-20T01:38:38;2.40;;;1.60;;
2462;SDS011;1243;54.298;10.172;2023-01-20T01:41:03;2.70;;;1.73;;
2462;SDS011;1243;54.298;10.172;2023-01-20T01:43:31;5.63;;;1.50;;
2462;SDS011;1243;54.298;10.172;2023-01-20T01:45:59;1.60;;;1.50;;
2462;SDS011;1243;54.298;10.172;2023-01-20T01:48:32;1.57;;;1.47;;
2462;SDS011;1243;54.298;10.172;2023-01-20T01:51:06;1.47;;;1.37;;
2462;SDS011;1243;54.298;10.172;2023-01-20T01:53:39;3.33;;;1.93;;
2462;SDS011;1243;54.298;10.172;2023-01-20T01:56:09;2.23;;;1.80;;
2462;SDS011;1243;54.298;10.172;2023-01-20T01:58:38;4.23;;;1.77;;
2462;SDS011;1243;54.298;10.172;2023-01-20T02:01:07;5.43;;;2.20;;
2462;SDS011;1243;54.298;10.172;2023-01-20T02:03:36;1.90;;;1.80;;
2462;SDS011;1243;54.298;10.172;2023-01-20T02:06:12;2.30;;;2.20;;
2462;SDS011;1243;54.298;10.172;2023-01-20T02:08:39;1.80;;;1.70;;
2462;SDS011;1243;54.298;10.172;2023-01-20T02:11:06;1.80;;;1.70;;
2462;SDS011;1243;54.298;10.172;2023-01-20T02:13:32;2.13;;;2.03;;
2462;SDS011;1243;54.298;10.172;2023-01-20T02:16:00;2.40;;;2.20;;
2462;SDS011;1243;54.298;10.172;2023-01-20T02:29:40;2.00;;;1.90;;
2462;SDS011;1243;54.298;10.172;2023-01-20T02:35:07;4.03;;;3.10;;
2462;SDS011;1243;54.298;10.172;2023-01-20T02:43:10;3.10;;;2.90;;
2462;SDS011;1243;54.298;10.172;2023-01-20T02:45:51;3.37;;;3.07;;
2462;SDS011;1243;54.298;10.172;2023-01-20T02:48:33;3.60;;;2.60;;
2462;SDS011;1243;54.298;10.172;2023-01-20T02:51:27;4.93;;;4.53;;
2462;SDS011;1243;54.298;10.172;2023-01-20T02:53:59;4.53;;;4.20;;
2462;SDS011;1243;54.298;10.172;2023-01-20T02:56:29;3.60;;;3.40;;
2462;SDS011;1243;54.298;10.172;2023-01-20T02:59:00;4.50;;;4.10;;
2462;SDS011;1243;54.298;10.172;2023-01-20T03:01:44;4.73;;;4.43;;
2462;SDS011;1243;54.298;10.172;2023-01-20T03:04:15;5.17;;;3.80;;
2462;SDS011;1243;54.298;10.172;2023-01-20T03:06:46;4.67;;;4.37;;
2462;SDS011;1243;54.298;10.172;2023-01-20T03:09:17;6.90;;;4.70;;
2462;SDS011;1243;54.298;10.172;2023-01-20T03:11:50;4.70;;;4.30;;
2462;SDS011;1243;54.298;10.172;2023-01-20T03:14:20;4.37;;;3.97;;
2462;SDS011;1243;54.298;10.172;2023-01-20T03:16:47;5.97;;;4.50;;
2462;SDS011;1243;54.298;10.172;2023-01-20T03:19:14;3.83;;;3.60;;
2462;SDS011;1243;54.298;10.172;2023-01-20T03:21:41;3.40;;;3.20;;
2462;SDS011;1243;54.298;10.172;2023-01-20T03:24:07;4.33;;;4.03;;
2462;SDS011;1243;54.298;10.172;2023-01-20T03:26:33;3.53;;;3.33;;
2462;SDS011;1243;54.298;10.172;2023-01-20T03:29:03;3.57;;;3.27;;
2462;SDS011;1243;54.298;10.172;2023-01-20T03:34:09;3.03;;;2.83;;
2462;SDS011;1243;54.298;10.172;2023-01-20T03:36:39;2.87;;;2.70;;
2462;SDS011;1243;54.298;10.172;2023-01-20T03:39:07;3.07;;;2.87;;
2462;SDS011;1243;54.298;10.172;2023-01-20T03:46:44;2.83;;;2.73;;
2462;SDS011;1243;54.298;10.172;2023-01-20T03:49:26;2.00;;;1.90;;
2462;SDS011;1243;54.298;10.172;2023-01-20T03:52:17;2.05;;;1.95;;
2462;SDS011;1243;54.298;10.172;2023-01-20T03:54:54;2.20;;;1.97;;
2462;SDS011;1243;54.298;10.172;2023-01-20T03:57:30;2.07;;;1.97;;
2462;SDS011;1243;54.298;10.172;2023-01-20T04:00:00;2.30;;;2.20;;
2462;SDS011;1243;54.298;10.172;2023-01-20T04:02:29;2.13;;;1.92;;
2462;SDS011;1243;54.298;10.172;2023-01-20T04:04:56;2.30;;;2.05;;
2462;SDS011;1243;54.298;10.172;2023-01-20T04:07:23;2.10;;;2.00;;
2462;SDS011;1243;54.298;10.172;2023-01-20T04:09:51;2.20;;;2.00;;
2462;SDS011;1243;54.298;10.172;2023-01-20T04:12:19;2.00;;;1.90;;
2462;SDS011;1243;54.298;10.172;2023-01-20T04:14:45;1.90;;;1.80;;
2462;SDS011;1243;54.298;10.172;2023-01-20T04:17:11;2.17;;;2.07;;
2462;SDS011;1243;54.298;10.172;2023-01-20T04:19:37;2.23;;;2.13;;
2462;SDS011;1243;54.298;10.172;2023-01-20T04:22:16;2.27;;;2.17;;
2462;SDS011;1243;54.298;10.172;2023-01-20T04:25:16;2.00;;;1.90;;
2462;SDS011;1243;54.298;10.172;2023-01-20T04:27:52;3.83;;;2.80;;
2462;SDS011;1243;54.298;10.172;2023-01-20T04:30:18;3.10;;;2.90;;
2462;SDS011;1243;54.298;10.172;2023-01-20T04:32:44;3.60;;;2.70;;
2462;SDS011;1243;54.298;10.172;2023-01-20T04:35:15;3.20;;;3.00;;
2462;SDS011;1243;54.298;10.172;2023-01-20T04:37:43;2.80;;;2.60;;
2462;SDS011;1243;54.298;10.172;2023-01-20T04:40:09;5.90;;;2.97;;
2462;SDS011;1243;54.298;10.172;2023-01-20T04:42:35;3.73;;;3.40;;
2462;SDS011;1243;54.298;10.172;2023-01-20T04:45:02;4.00;;;2.93;;
2462;SDS011;1243;54.298;10.172;2023-01-20T04:47:28;5.00;;;3.10;;
2462;SDS011;1243;54.298;10.172;2023-01-20T04:49:55;5.13;;;3.07;;
2462;SDS011;1243;54.298;10.172;2023-01-20T04:52:21;3.50;;;3.30;;
2462;SDS011;1243;54.298;10.172;2023-01-20T04:54:47;3.60;;;3.40;;
2462;SDS011;1243;54.298;10.172;2023-01-20T04:57:12;3.57;;;3.37;;
2462;SDS011;1243;54.298;10.172;2023-01-20T04:59:38;4.10;;;3.60;;
2462;SDS011;1243;54.298;10.172;2023-01-20T05:02:04;4.17;;;3.87;;
2462;SDS011;1243;54.298;10.172;2023-01-20T05:04:29;4.40;;;4.00;;
2462;SDS011;1243;54.298;10.172;2023-01-20T05:06:55;4.37;;;4.07;;
2462;SDS011;1243;54.298;10.172;2023-01-20T05:09:21;4.80;;;4.30;;
2462;SDS011;1243;54.298;10.172;2023-01-20T05:11:46;4.70;;;3.93;;
2462;SDS011;1243;54.298;10.172;2023-01-20T05:14:12;4.83;;;4.53;;
2462;SDS011;1243;54.298;10.172;2023-01-20T05:16:38;4.22;;;3.92;;
2462;SDS011;1243;54.298;10.172;2023-01-20T05:19:04;3.73;;;3.50;;
2462;SDS011;1243;54.298;10.172;2023-01-20T05:21:29;4.50;;;4.10;;
2462;SDS011;1243;54.298;10.172;2023-01-20T05:23:55;4.30;;;4.00;;
2462;SDS011;1243;54.298;10.172;2023-01-20T05:26:22;4.23;;;3.60;;
2462;SDS011;1243;54.298;10.172;2023-01-20T05:28:48;4.03;;;3.67;;
2462;SDS011;1243;54.298;10.172;2023-01-20T05:31:14;5.47;;;4.10;;
2462;SDS011;1243;54.298;10.172;2023-01-20T05:33:40;3.57;;;3.37;;
2462;SDS011;1243;54.298;10.172;2023-01-20T05:36:06;3.93;;;3.63;;
2462;SDS011;1243;54.298;10.172;2023-01-20T05:38:33;3.73;;;3.53;;
2462;SDS011;1243;54.298;10.172;2023-01-20T05:41:02;3.87;;;3.57;;
2462;SDS011;1243;54.298;10.172;2023-01-20T05:43:29;3.80;;;3.50;;
2462;SDS011;1243;54.298;10.172;2023-01-20T05:45:55;3.00;;;2.80;;
2462;SDS011;1243;54.298;10.172;2023-01-20T05:48:21;3.60;;;3.30;;
2462;SDS011;1243;54.298;10.172;2023-01-20T05:50:47;3.60;;;3.37;;
2462;SDS011;1243;54.298;10.172;2023-01-20T05:53:13;3.17;;;2.97;;
2462;SDS011;1243;54.298;10.172;2023-01-20T05:55:39;4.40;;;4.00;;
2462;SDS011;1243;54.298;10.172;2023-01-20T05:58:05;3.17;;;3.07;;
2462;SDS011;1243;54.298;10.172;2023-01-20T06:00:32;3.00;;;2.80;;
2462;SDS011;1243;54.298;10.172;2023-01-20T06:02:58;3.23;;;2.93;;
2462;SDS011;1243;54.298;10.172;2023-01-20T06:05:24;3.70;;;3.40;;
2462;SDS011;1243;54.298;10.172;2023-01-20T06:07:50;3.47;;;3.17;;
2462;SDS011;1243;54.298;10.172;2023-01-20T06:10:16;4.10;;;3.37;;
2462;SDS011;1243;54.298;10.172;2023-01-20T06:12:42;3.33;;;3.13;;
2462;SDS011;1243;54.298;10.172;2023-01-20T06:15:07;7.00;;;3.70;;
2462;SDS011;1243;54.298;10.172;2023-01-20T06:17:34;3.40;;;3.20;;
2462;SDS011;1243;54.298;10.172;2023-01-20T06:20:00;3.50;;;3.20;;
2462;SDS011;1243;54.298;10.172;2023-01-20T06:22:26;4.40;;;4.00;;
2462;SDS011;1243;54.298;10.172;2023-01-20T06:24:51;3.93;;;3.73;;
2462;SDS011;1243;54.298;10.172;2023-01-20T06:27:17;4.60;;;3.90;;
2462;SDS011;1243;54.298;10.172;2023-01-20T06:29:44;4.50;;;4.20;;
2462;SDS011;1243;54.298;10.172;2023-01-20T06:32:09;5.70;;;4.63;;
2462;SDS011;1243;54.298;10.172;2023-01-20T06:34:35;5.67;;;5.17;;
2462;SDS011;1243;54.298;10.172;2023-01-20T06:37:01;5.33;;;4.83;;
2462;SDS011;1243;54.298;10.172;2023-01-20T06:39:27;9.60;;;6.30;;
2462;SDS011;1243;54.298;10.172;2023-01-20T06:41:56;6.50;;;5.97;;
2462;SDS011;1243;54.298;10.172;2023-01-20T06:44:23;7.70;;;6.53;;
2462;SDS011;1243;54.298;10.172;2023-01-20T06:46:49;7.57;;;6.30;;
2462;SDS011;1243;54.298;10.172;2023-01-20T06:49:15;8.23;;;6.60;;
2462;SDS011;1243;54.298;10.172;2023-01-20T06:51:41;7.30;;;6.60;;
2462;SDS011;1243;54.298;10.172;2023-01-20T06:54:07;6.97;;;6.40;;
2462;SDS011;1243;54.298;10.172;2023-01-20T06:56:33;7.97;;;7.17;;
2462;SDS011;1243;54.298;10.172;2023-01-20T06:58:59;6.67;;;6.07;;
2462;SDS011;1243;54.298;10.172;2023-01-20T07:01:25;7.77;;;6.87;;
2462;SDS011;1243;54.298;10.172;2023-01-20T07:03:52;7.40;;;6.70;;
2462;SDS011;1243;54.298;10.172;2023-01-20T07:06:21;8.73;;;7.20;;
2462;SDS011;1243;54.298;10.172;2023-01-20T07:08:53;8.97;;;7.37;;
2462;SDS011;1243;54.298;10.172;2023-01-20T07:11:20;8.30;;;7.40;;
2462;SDS011;1243;54.298;10.172;2023-01-20T07:13:45;10.43;;;7.67;;
2462;SDS011;1243;54.298;10.172;2023-01-20T07:16:11;8.40;;;7.60;;
2462;SDS011;1243;54.298;10.172;2023-01-20T07:18:37;7.70;;;7.00;;
2462;SDS011;1243;54.298;10.172;2023-01-20T07:21:03;9.83;;;6.63;;
2462;SDS011;1243;54.298;10.172;2023-01-20T07:23:29;8.10;;;6.90;;
2462;SDS011;1243;54.298;10.172;2023-01-20T07:26:01;8.57;;;7.77;;
2462;SDS011;1243;54.298;10.172;2023-01-20T07:28:29;10.03;;;9.03;;
2462;SDS011;1243;54.298;10.172;2023-01-20T07:31:01;7.90;;;7.10;;
2462;SDS011;1243;54.298;10.172;2023-01-20T07:33:31;8.87;;;7.80;;
2462;SDS011;1243;54.298;10.172;2023-01-20T07:35:57;12.03;;;8.60;;
2462;SDS011;1243;54.298;10.172;2023-01-20T07:38:22;8.73;;;7.83;;
2462;SDS011;1243;54.298;10.172;2023-01-20T07:40:48;8.30;;;7.50;;
2462;SDS011;1243;54.298;10.172;2023-01-20T07:43:14;8.33;;;7.53;;
2462;SDS011;1243;54.298;10.172;2023-01-20T07:45:40;8.83;;;8.03;;
2462;SDS011;1243;54.298;10.172;2023-01-20T07:48:06;9.67;;;8.67;;
2462;SDS011;1243;54.298;10.172;2023-01-20T07:50:35;10.73;;;8.83;;
2462;SDS011;1243;54.298;10.172;2023-01-20T07:53:01;10.63;;;9.13;;
2462;SDS011;1243;54.298;10.172;2023-01-20T07:55:27;10.87;;;8.90;;
2462;SDS011;1243;54.298;10.172;2023-01-20T07:57:53;9.57;;;8.57;;
2462;SDS011;1243;54.298;10.172;2023-01-20T08:00:20;12.67;;;9.93;;
2462;SDS011;1243;54.298;10.172;2023-01-20T08:02:46;13.87;;;8.73;;
2462;SDS011;1243;54.298;10.172;2023-01-20T08:05:11;10.60;;;9.43;;
2462;SDS011;1243;54.298;10.172;2023-01-20T08:07:37;9.40;;;8.50;;
2462;SDS011;1243;54.298;10.172;2023-01-20T08:10:03;13.07;;;11.87;;
2462;SDS011;1243;54.298;10.172;2023-01-20T08:12:29;15.53;;;10.27;;
2462;SDS011;1243;54.298;10.172;2023-01-20T08:14:55;15.87;;;11.80;;
2462;SDS011;1243;54.298;10.172;2023-01-20T08:17:20;13.10;;;10.40;;
2462;SDS011;1243;54.298;10.172;2023-01-20T08:19:46;15.65;;;12.27;;
2462;SDS011;1243;54.298;10.172;2023-01-20T08:22:12;23.13;;;15.27;;
2462;SDS011;1243;54.298;10.172;2023-01-20T08:24:38;22.43;;;12.63;;
2462;SDS011;1243;54.298;10.172;2023-01-20T08:27:04;17.43;;;13.60;;
2462;SDS011;1243;54.298;10.172;2023-01-20T08:29:29;18.83;;;13.73;;
2462;SDS011;1243;54.298;10.172;2023-01-20T08:31:58;16.70;;;12.05;;
2462;SDS011;1243;54.298;10.172;2023-01-20T08:34:25;22.63;;;13.25;;
2462;SDS011;1243;54.298;10.172;2023-01-20T08:36:51;23.00;;;14.55;;
2462;SDS011;1243;54.298;10.172;2023-01-20T08:39:18;24.95;;;15.73;;
2462;SDS011;1243;54.298;10.172;2023-01-20T08:41:45;25.95;;;15.05;;
2462;SDS011;1243;54.298;10.172;2023-01-20T08:44:12;35.08;;;15.20;;
2462;SDS011;1243;54.298;10.172;2023-01-20T08:46:38;21.95;;;14.88;;
2462;SDS011;1243;54.298;10.172;2023-01-20T08:49:08;27.87;;;15.13;;
2462;SDS011;1243;54.298;10.172;2023-01-20T08:51:35;25.83;;;14.35;;
2462;SDS011;1243;54.298;10.172;2023-01-20T08:54:01;28.13;;;15.93;;
2462;SDS011;1243;54.298;10.172;2023-01-20T08:56:27;28.23;;;16.13;;
2462;SDS011;1243;54.298;10.172;2023-01-20T08:58:54;21.98;;;13.82;;
2462;SDS011;1243;54.298;10.172;2023-01-20T09:01:22;31.38;;;16.85;;
2462;SDS011;1243;54.298;10.172;2023-01-20T09:03:50;22.58;;;15.02;;
2462;SDS011;1243;54.298;10.172;2023-01-20T09:06:16;25.67;;;14.75;;
2462;SDS011;1243;54.298;10.172;2023-01-20T09:08:42;21.57;;;13.30;;
2462;SDS011;1243;54.298;10.172;2023-01-20T09:11:11;20.33;;;13.07;;
2462;SDS011;1243;54.298;10.172;2023-01-20T09:13:39;22.23;;;14.17;;
2462;SDS011;1243;54.298;10.172;2023-01-20T09:16:05;21.70;;;13.87;;
2462;SDS011;1243;54.298;10.172;2023-01-20T09:18:31;21.37;;;13.53;;
2462;SDS011;1243;54.298;10.172;2023-01-20T09:20:58;22.65;;;14.25;;
2462;SDS011;1243;54.298;10.172;2023-01-20T09:23:25;21.52;;;13.45;;
2462;SDS011;1243;54.298;10.172;2023-01-20T09:25:52;25.35;;;15.98;;
2462;SDS011;1243;54.298;10.172;2023-01-20T09:28:17;18.23;;;12.77;;
2462;SDS011;1243;54.298;10.172;2023-01-20T09:30:43;26.77;;;14.20;;
2462;SDS011;1243;54.298;10.172;2023-01-20T09:33:09;22.67;;;14.63;;
2462;SDS011;1243;54.298;10.172;2023-01-20T09:35:35;22.33;;;13.63;;
2462;SDS011;1243;54.298;10.172;2023-01-20T09:38:01;24.13;;;13.40;;
2462;SDS011;1243;54.298;10.172;2023-01-20T09:55:56;20.30;;;14.37;;
2462;SDS011;1243;54.298;10.172;2023-01-20T10:12:25;23.40;;;15.60;;
2462;SDS011;1243;54.298;10.172;2023-01-20T10:14:58;18.83;;;12.47;;
2462;SDS011;1243;54.298;10.172;2023-01-20T10:17:42;25.33;;;14.17;;
2462;SDS011;1243;54.298;10.172;2023-01-20T10:20:20;22.77;;;11.23;;
2462;SDS011;1243;54.298;10.172;2023-01-20T10:25:51;20.77;;;13.15;;
2462;SDS011;1243;54.298;10.172;2023-01-20T10:28:27;25.02;;;13.13;;
2462;SDS011;1243;54.298;10.172;2023-01-20T10:30:58;21.50;;;12.33;;
2462;SDS011;1243;54.298;10.172;2023-01-20T10:33:28;23.00;;;12.10;;
2462;SDS011;1243;54.298;10.172;2023-01-20T10:36:03;19.33;;;11.68;;
2462;SDS011;1243;54.298;10.172;2023-01-20T10:41:06;24.70;;;13.90;;
2462;SDS011;1243;54.298;10.172;2023-01-20T10:43:41;23.77;;;15.57;;
2462;SDS011;1243;54.298;10.172;2023-01-20T10:57:17;26.30;;;13.20;;
2462;SDS011;1243;54.298;10.172;2023-01-20T11:04:54;30.23;;;16.37;;
2462;SDS011;1243;54.298;10.172;2023-01-20T11:07:40;27.87;;;13.87;;
2462;SDS011;1243;54.298;10.172;2023-01-20T11:10:17;25.20;;;14.70;;
2462;SDS011;1243;54.298;10.172;2023-01-20T11:12:46;27.53;;;15.30;;
2462;SDS011;1243;54.298;10.172;2023-01-20T11:15:19;28.37;;;14.73;;
2462;SDS011;1243;54.298;10.172;2023-01-20T11:20:44;25.50;;;14.23;;
2462;SDS011;1243;54.298;10.172;2023-01-20T11:28:46;31.23;;;15.77;;
2462;SDS011;1243;54.298;10.172;2023-01-20T11:31:40;23.83;;;13.70;;
2462;SDS011;1243;54.298;10.172;2023-01-20T11:37:11;36.40;;;15.10;;
2462;SDS011;1243;54.298;10.172;2023-01-20T11:42:15;24.43;;;12.50;;
2462;SDS011;1243;54.298;10.172;2023-01-20T11:44:57;32.30;;;16.90;;
2462;SDS011;1243;54.298;10.172;2023-01-20T11:47:29;28.20;;;14.93;;
2462;SDS011;1243;54.298;10.172;2023-01-20T11:52:38;24.13;;;14.23;;
2462;SDS011;1243;54.298;10.172;2023-01-20T11:55:15;24.07;;;14.70;;
2462;SDS011;1243;54.298;10.172;2023-01-20T11:58:03;25.03;;;12.67;;
2462;SDS011;1243;54.298;10.172;2023-01-20T12:08:13;31.33;;;14.27;;
2462;SDS011;1243;54.298;10.172;2023-01-20T12:10:42;24.93;;;14.50;;
2462;SDS011;1243;54.298;10.172;2023-01-20T12:13:16;34.50;;;16.20;;
2462;SDS011;1243;54.298;10.172;2023-01-20T12:15:49;28.20;;;14.90;;
2462;SDS011;1243;54.298;10.172;2023-01-20T12:18:22;25.43;;;14.70;;
2462;SDS011;1243;54.298;10.172;2023-01-20T12:21:10;31.00;;;13.43;;
2462;SDS011;1243;54.298;10.172;2023-01-20T12:23:47;22.30;;;13.10;;
2462;SDS011;1243;54.298;10.172;2023-01-20T12:26:25;21.03;;;11.90;;
2462;SDS011;1243;54.298;10.172;2023-01-20T12:31:18;23.10;;;13.77;;
2462;SDS011;1243;54.298;10.172;2023-01-20T12:34:02;17.07;;;11.43;;
2462;SDS011;1243;54.298;10.172;2023-01-20T12:44:36;18.43;;;11.70;;
2462;SDS011;1243;54.298;10.172;2023-01-20T12:50:08;24.37;;;12.83;;
2462;SDS011;1243;54.298;10.172;2023-01-20T12:58:09;21.97;;;12.10;;
2462;SDS011;1243;54.298;10.172;2023-01-20T13:17:48;16.03;;;10.17;;
2462;SDS011;1243;54.298;10.172;2023-01-20T13:20:19;20.30;;;13.17;;
2462;SDS011;1243;54.298;10.172;2023-01-20T13:22:47;17.87;;;10.43;;
2462;SDS011;1243;54.298;10.172;2023-01-20T13:25:15;27.67;;;11.90;;
2462;SDS011;1243;54.298;10.172;2023-01-20T13:27:43;23.87;;;12.97;;
2462;SDS011;1243;54.298;10.172;2023-01-20T13:30:37;19.83;;;11.57;;
2462;SDS011;1243;54.298;10.172;2023-01-20T13:33:12;19.00;;;12.70;;
2462;SDS011;1243;54.298;10.172;2023-01-20T13:35:58;19.07;;;11.93;;
2462;SDS011;1243;54.298;10.172;2023-01-20T13:38:26;20.10;;;12.03;;
2462;SDS011;1243;54.298;10.172;2023-01-20T13:40:57;16.53;;;11.60;;
2462;SDS011;1243;54.298;10.172;2023-01-20T13:48:34;20.20;;;13.17;;
2462;SDS011;1243;54.298;10.172;2023-01-20T13:53:45;18.20;;;12.00;;
2462;SDS011;1243;54.298;10.172;2023-01-20T13:56:24;20.33;;;12.60;;
2462;SDS011;1243;54.298;10.172;2023-01-20T13:58:51;22.03;;;13.30;;
2462;SDS011;1243;54.298;10.172;2023-01-20T14:01:18;27.50;;;11.70;;
2462;SDS011;1243;54.298;10.172;2023-01-20T14:03:43;20.07;;;11.00;;
2462;SDS011;1243;54.298;10.172;2023-01-20T14:06:43;19.97;;;11.80;;
2462;SDS011;1243;54.298;10.172;2023-01-20T14:09:10;20.67;;;11.37;;
2462;SDS011;1243;54.298;10.172;2023-01-20T14:11:48;23.87;;;14.10;;
2462;SDS011;1243;54.298;10.172;2023-01-20T14:14:17;18.37;;;12.37;;
2462;SDS011;1243;54.298;10.172;2023-01-20T14:16:44;18.77;;;12.63;;
2462;SDS011;1243;54.298;10.172;2023-01-20T14:21:56;21.20;;;13.23;;
2462;SDS011;1243;54.298;10.172;2023-01-20T14:27:04;22.60;;;13.17;;
2462;SDS011;1243;54.298;10.172;2023-01-20T14:29:41;19.23;;;12.67;;
2462;SDS011;1243;54.298;10.172;2023-01-20T14:34:53;24.03;;;14.87;;
2462;SDS011;1243;54.298;10.172;2023-01-20T14:37:30;27.97;;;13.50;;
2462;SDS011;1243;54.298;10.172;2023-01-20T14:39:59;21.73;;;14.23;;
2462;SDS011;1243;54.298;10.172;2023-01-20T14:42:53;22.27;;;13.90;;
2462;SDS011;1243;54.298;10.172;2023-01-20T14:45:48;24.27;;;15.07;;
2462;SDS011;1243;54.298;10.172;2023-01-20T14:48:18;24.17;;;14.50;;
2462;SDS011;1243;54.298;10.172;2023-01-20T14:50:47;26.67;;;13.00;;
2462;SDS011;1243;54.298;10.172;2023-01-20T14:53:16;25.17;;;14.43;;
2462;SDS011;1243;54.298;10.172;2023-01-20T14:55:42;20.60;;;13.60;;
2462;SDS011;1243;54.298;10.172;2023-01-20T14:58:31;23.23;;;12.83;;
2462;SDS011;1243;54.298;10.172;2023-01-20T15:01:04;24.07;;;15.17;;
2462;SDS011;1243;54.298;10.172;2023-01-20T15:03:31;23.90;;;15.03;;
2462;SDS011;1243;54.298;10.172;2023-01-20T15:06:03;24.53;;;14.63;;
2462;SDS011;1243;54.298;10.172;2023-01-20T15:11:15;19.57;;;12.57;;
2462;SDS011;1243;54.298;10.172;2023-01-20T15:16:27;25.40;;;14.23;;
2462;SDS011;1243;54.298;10.172;2023-01-20T15:21:42;27.53;;;14.60;;
2462;SDS011;1243;54.298;10.172;2023-01-20T15:24:17;34.97;;;15.47;;
2462;SDS011;1243;54.298;10.172;2023-01-20T15:26:47;27.87;;;16.10;;
2462;SDS011;1243;54.298;10.172;2023-01-20T15:29:21;23.67;;;15.93;;
2462;SDS011;1243;54.298;10.172;2023-01-20T15:31:55;25.17;;;16.23;;
2462;SDS011;1243;54.298;10.172;2023-01-20T15:34:25;35.97;;;17.00;;
2462;SDS011;1243;54.298;10.172;2023-01-20T15:36:52;29.23;;;15.90;;
2462;SDS011;1243;54.298;10.172;2023-01-20T15:39:21;23.63;;;14.53;;
2462;SDS011;1243;54.298;10.172;2023-01-20T15:41:54;25.77;;;15.77;;
2462;SDS011;1243;54.298;10.172;2023-01-20T15:44:21;27.20;;;16.73;;
2462;SDS011;1243;54.298;10.172;2023-01-20T15:46:48;29.63;;;15.30;;
2462;SDS011;1243;54.298;10.172;2023-01-20T15:49:14;22.13;;;16.37;;
2462;SDS011;1243;54.298;10.172;2023-01-20T15:51:40;24.53;;;16.50;;
2462;SDS011;1243;54.298;10.172;2023-01-20T15:54:09;32.40;;;16.47;;
2462;SDS011;1243;54.298;10.172;2023-01-20T15:56:36;30.80;;;17.60;;
2462;SDS011;1243;54.298;10.172;2023-01-20T15:59:09;26.70;;;16.47;;
2462;SDS011;1243;54.298;10.172;2023-01-20T16:01:40;28.37;;;17.60;;
2462;SDS011;1243;54.298;10.172;2023-01-20T16:04:06;31.83;;;15.47;;
2462;SDS011;1243;54.298;10.172;2023-01-20T16:06:33;29.87;;;16.43;;
2462;SDS011;1243;54.298;10.172;2023-01-20T16:09:00;28.60;;;16.77;;
2462;SDS011;1243;54.298;10.172;2023-01-20T16:11:27;27.67;;;17.47;;
2462;SDS011;1243;54.298;10.172;2023-01-20T16:13:53;30.50;;;15.43;;
2462;SDS011;1243;54.298;10.172;2023-01-20T16:16:20;27.70;;;15.77;;
2462;SDS011;1243;54.298;10.172;2023-01-20T16:18:47;34.27;;;17.30;;
2462;SDS011;1243;54.298;10.172;2023-01-20T16:21:15;37.00;;;17.80;;
2462;SDS011;1243;54.298;10.172;2023-01-20T16:23:42;34.90;;;18.83;;
2462;SDS011;1243;54.298;10.172;2023-01-20T16:26:18;32.43;;;18.50;;
2462;SDS011;1243;54.298;10.172;2023-01-20T16:28:51;30.80;;;17.60;;
2462;SDS011;1243;54.298;10.172;2023-01-20T16:31:19;27.67;;;15.43;;
2462;SDS011;1243;54.298;10.172;2023-01-20T16:33:46;38.70;;;18.30;;
2462;SDS011;1243;54.298;10.172;2023-01-20T16:36:12;25.10;;;15.80;;
2462;SDS011;1243;54.298;10.172;2023-01-20T16:38:40;29.50;;;16.03;;
2462;SDS011;1243;54.298;10.172;2023-01-20T16:41:10;32.93;;;16.87;;
2462;SDS011;1243;54.298;10.172;2023-01-20T16:43:43;31.60;;;17.00;;
2462;SDS011;1243;54.298;10.172;2023-01-20T16:46:15;37.60;;;19.00;;
2462;SDS011;1243;54.298;10.172;2023-01-20T16:48:55;29.90;;;17.47;;
2462;SDS011;1243;54.298;10.172;2023-01-20T16:51:26;26.30;;;16.83;;
2462;SDS011;1243;54.298;10.172;2023-01-20T16:53:53;32.37;;;17.50;;
2462;SDS011;1243;54.298;10.172;2023-01-20T16:56:21;30.70;;;18.20;;
2462;SDS011;1243;54.298;10.172;2023-01-20T16:58:49;29.80;;;16.70;;
2462;SDS011;1243;54.298;10.172;2023-01-20T17:01:17;31.73;;;17.30;;
2462;SDS011;1243;54.298;10.172;2023-01-20T17:03:49;40.07;;;19.33;;
2462;SDS011;1243;54.298;10.172;2023-01-20T17:06:23;32.73;;;17.77;;
2462;SDS011;1243;54.298;10.172;2023-01-20T17:08:52;34.27;;;17.97;;
2462;SDS011;1243;54.298;10.172;2023-01-20T17:11:19;30.97;;;18.43;;
2462;SDS011;1243;54.298;10.172;2023-01-20T17:13:46;27.27;;;17.60;;
2462;SDS011;1243;54.298;10.172;2023-01-20T17:16:12;32.10;;;19.30;;
2462;SDS011;1243;54.298;10.172;2023-01-20T17:18:38;36.37;;;18.77;;
2462;SDS011;1243;54.298;10.172;2023-01-20T17:21:10;35.63;;;17.47;;
2462;SDS011;1243;54.298;10.172;2023-01-20T17:23:37;33.43;;;19.03;;
2462;SDS011;1243;54.298;10.172;2023-01-20T17:26:04;31.50;;;18.17;;
2462;SDS011;1243;54.298;10.172;2023-01-20T17:28:31;29.50;;;17.60;;
2462;SDS011;1243;54.298;10.172;2023-01-20T17:31:03;36.00;;;19.20;;
2462;SDS011;1243;54.298;10.172;2023-01-20T17:33:30;55.67;;;24.77;;
2462;SDS011;1243;54.298;10.172;2023-01-20T17:35:57;31.90;;;18.23;;
2462;SDS011;1243;54.298;10.172;2023-01-20T17:38:25;29.10;;;17.73;;
2462;SDS011;1243;54.298;10.172;2023-01-20T17:40:59;33.53;;;18.67;;
2462;SDS011;1243;54.298;10.172;2023-01-20T17:43:29;34.07;;;17.20;;